Time;durP1;ratioP1;P1;durP2;ratioP2;P2;SDS_P1;SDS_P2;PMS_P1;PMS_P2;Temp;Humidity;BMP_temperature;BMP_pressure;BME280_temperature;BME280_humidity;BME280_pressure;Samples;Min_cycle;Max_cycle;Signal;HPM_P1;HPM_P2
2021/05/16 00:00:12;;;;;;;16.08;4.00;;;;;;;13.24;77.18;99985.47;4952344;29;20427;-61
2021/05/16 00:02:40;;;;;;;20.98;4.15;;;;;;;12.94;78.58;99977.75;4953530;28;20058;-62
2021/05/16 00:05:08;;;;;;;21.08;4.85;;;;;;;12.85;79.26;99972.34;4967101;28;20058;-65
2021/05/16 00:07:35;;;;;;;18.25;3.85;;;;;;;13.09;79.11;99975.13;4972703;28;20054;-63
2021/05/16 00:10:05;;;;;;;16.13;3.47;;;;;;;13.62;77.25;99967.59;4972321;28;20055;-64
2021/05/16 00:12:32;;;;;;;16.10;2.93;;;;;;;13.50;74.33;99963.75;4972438;28;20047;-64
2021/05/16 00:15:00;;;;;;;14.40;2.30;;;;;;;13.51;74.33;99967.31;4970942;28;20051;-67
2021/05/16 00:22:04;;;;;;;9.77;2.25;;;;;;;13.23;72.94;99978.31;4972192;28;20051;-64
2021/05/16 00:24:31;;;;;;;13.88;2.20;;;;;;;13.21;73.48;99993.66;4973286;28;20059;-62
2021/05/16 00:26:59;;;;;;;11.15;2.10;;;;;;;12.65;75.16;99983.53;4972957;28;20062;-61
2021/05/16 00:29:26;;;;;;;11.35;2.80;;;;;;;12.73;76.92;99977.06;4973069;28;20051;-62
2021/05/16 00:31:54;;;;;;;11.90;2.67;;;;;;;12.74;76.76;99973.16;4971538;28;20055;-64
2021/05/16 00:34:23;;;;;;;10.88;1.98;;;;;;;12.79;76.86;99962.69;4974565;28;20051;-64
2021/05/16 00:36:51;;;;;;;8.18;2.13;;;;;;;12.37;78.00;99964.88;4973576;28;20062;-62
2021/05/16 00:39:18;;;;;;;10.63;2.33;;;;;;;12.38;78.57;99969.22;4972073;28;20055;-65
2021/05/16 00:41:45;;;;;;;12.27;2.35;;;;;;;12.82;78.04;99966.72;4973040;28;20051;-66
2021/05/16 00:44:15;;;;;;;11.57;2.47;;;;;;;12.50;77.96;99967.66;4972974;28;20055;-65
2021/05/16 00:46:42;;;;;;;10.25;2.35;;;;;;;12.59;78.17;99963.59;4971408;28;20047;-65
2021/05/16 00:49:11;;;;;;;13.40;2.58;;;;;;;12.78;77.43;99972.13;4972347;28;20486;-65
2021/05/16 00:51:38;;;;;;;11.80;2.67;;;;;;;12.98;76.84;99965.69;4973279;28;20054;-67
2021/05/16 00:54:07;;;;;;;13.90;2.70;;;;;;;13.04;76.51;99963.50;4973140;28;20047;-64
2021/05/16 00:56:37;;;;;;;11.75;2.70;;;;;;;12.84;76.91;99968.00;4971110;28;20058;-69
2021/05/16 00:59:05;;;;;;;12.45;2.35;;;;;;;13.00;76.14;99960.59;4955774;28;20046;-63
2021/05/16 01:01:33;;;;;;;13.50;2.55;;;;;;;12.86;76.52;99962.94;4972636;28;20047;-67
2021/05/16 01:04:00;;;;;;;12.02;2.67;;;;;;;12.72;77.19;99956.94;4973952;28;20055;-66
2021/05/16 01:06:29;;;;;;;14.90;2.90;;;;;;;12.69;77.41;99956.81;4975610;28;20047;-70
2021/05/16 01:08:58;;;;;;;13.48;2.70;;;;;;;12.88;77.15;99955.09;4943609;28;20394;-67
2021/05/16 01:11:31;;;;;;;17.90;2.92;;;;;;;12.68;77.57;99950.50;4943003;28;20054;-65
2021/05/16 01:14:05;;;;;;;14.32;3.17;;;;;;;12.59;78.26;99949.78;4974487;28;20051;-65
2021/05/16 01:16:32;;;;;;;16.20;3.50;;;;;;;12.63;77.94;99942.44;4973902;28;20055;-66
2021/05/16 01:19:00;;;;;;;13.93;3.33;;;;;;;12.70;77.98;99942.66;4974525;28;20046;-66
2021/05/16 01:21:28;;;;;;;18.40;3.63;;;;;;;12.84;77.67;99945.88;4974488;28;20405;-65
2021/05/16 01:23:57;;;;;;;20.88;3.22;;;;;;;12.97;76.72;99933.63;4975467;28;20054;-66
2021/05/16 01:26:31;;;;;;;15.57;3.08;;;;;;;12.70;77.64;99942.66;4973514;28;20065;-64
2021/05/16 01:28:59;;;;;;;19.65;4.10;;;;;;;12.83;77.64;99933.19;4974106;28;20054;-68
2021/05/16 01:31:28;;;;;;;14.70;3.25;;;;;;;12.71;77.43;99938.72;4973975;28;20050;-65
2021/05/16 01:33:56;;;;;;;15.70;3.50;;;;;;;12.88;77.45;99926.66;4975268;28;20510;-67
2021/05/16 01:36:23;;;;;;;21.73;3.60;;;;;;;12.78;77.20;99932.66;4974756;28;20067;-68
2021/05/16 01:38:52;;;;;;;20.45;3.47;;;;;;;12.70;77.17;99925.28;4973828;28;20410;-65
2021/05/16 01:41:20;;;;;;;23.48;4.22;;;;;;;12.87;77.37;99923.06;4974793;28;20051;-61
2021/05/16 01:43:51;;;;;;;20.80;3.70;;;;;;;12.87;75.93;99928.59;4958278;28;20061;-61
2021/05/16 01:46:18;;;;;;;18.92;3.55;;;;;;;12.75;76.28;99925.84;4973972;28;20051;-63
2021/05/16 01:48:45;;;;;;;31.75;3.90;;;;;;;12.65;76.83;99931.03;4974678;28;20143;-64
2021/05/16 01:51:13;;;;;;;22.63;3.60;;;;;;;12.63;76.60;99927.81;4974031;28;20055;-65
2021/05/16 01:53:41;;;;;;;28.40;4.38;;;;;;;12.55;77.08;99929.56;4974110;28;20054;-66
2021/05/16 01:56:08;;;;;;;23.88;4.32;;;;;;;12.41;77.11;99932.63;4974529;28;20051;-67
2021/05/16 01:58:36;;;;;;;21.00;3.70;;;;;;;12.30;77.52;99925.97;4973346;28;20494;-68
2021/05/16 02:01:04;;;;;;;18.10;3.88;;;;;;;12.44;77.24;99931.97;4957420;28;20055;-63
2021/05/16 02:08:13;;;;;;;19.60;4.10;;;;;;;12.28;76.90;99928.28;4955354;29;20382;-60
2021/05/16 02:10:41;;;;;;;18.98;3.45;;;;;;;12.36;76.89;99934.84;4954226;29;20066;-61
2021/05/16 02:13:12;;;;;;;22.95;4.03;;;;;;;12.39;76.42;99932.19;4954345;28;20475;-65
2021/05/16 02:15:47;;;;;;;20.42;4.13;;;;;;;12.37;76.45;99928.97;4953924;29;20043;-66
2021/05/16 02:22:43;;;;;;;18.50;3.53;;;;;;;12.36;76.13;99926.56;4955157;29;20352;-62
2021/05/16 02:25:14;;;;;;;18.95;4.07;;;;;;;12.28;76.76;99924.69;4969318;28;20051;-65
2021/05/16 02:27:49;;;;;;;19.70;3.58;;;;;;;12.21;77.01;99932.75;4953875;29;20051;-63
2021/05/16 02:30:19;;;;;;;19.98;4.05;;;;;;;12.32;76.39;99928.38;4954550;28;20047;-64
2021/05/16 02:32:47;;;;;;;20.23;4.10;;;;;;;12.33;75.74;99929.97;4968944;28;20047;-66
2021/05/16 02:35:15;;;;;;;19.60;4.03;;;;;;;12.29;76.26;99929.88;4955576;28;20071;-65
2021/05/16 02:37:57;;;;;;;21.95;3.83;;;;;;;12.19;76.61;99927.56;4954104;28;20371;-61
2021/05/16 02:40:25;;;;;;;18.88;2.83;;;;;;;12.22;76.62;99929.63;4937305;29;20513;-66
2021/05/16 02:42:53;;;;;;;22.13;4.15;;;;;;;11.91;77.68;99925.78;4952644;29;20066;-63
2021/05/16 02:45:21;;;;;;;22.20;3.85;;;;;;;12.00;77.43;99929.25;4969051;28;20062;-64
2021/05/16 02:47:53;;;;;;;18.50;3.78;;;;;;;12.03;77.45;99926.59;4954279;28;20055;-63
2021/05/16 02:50:23;;;;;;;23.30;4.10;;;;;;;11.96;77.54;99931.09;4969033;28;20062;-62
2021/05/16 02:52:58;;;;;;;24.52;3.67;;;;;;;12.08;76.95;99931.91;4954080;28;20059;-61
2021/05/16 02:55:30;;;;;;;25.55;3.83;;;;;;;11.99;77.43;99928.47;4936191;29;20058;-63
2021/05/16 02:57:58;;;;;;;16.55;4.00;;;;;;;11.93;77.26;99938.09;4954235;28;20073;-61
2021/05/16 03:00:31;;;;;;;19.25;4.20;;;;;;;12.07;76.75;99929.50;4952282;29;20055;-66
2021/05/16 03:02:59;;;;;;;26.35;4.65;;;;;;;12.00;77.34;99927.28;4952031;29;20506;-63
2021/05/16 03:05:28;;;;;;;24.88;3.90;;;;;;;12.01;77.18;99926.13;4968681;28;20426;-62
2021/05/16 03:07:57;;;;;;;17.60;3.55;;;;;;;12.00;77.47;99929.25;4972132;28;20066;-64
2021/05/16 03:10:25;;;;;;;19.50;3.28;;;;;;;12.05;77.01;99915.22;4971481;28;20055;-61
2021/05/16 03:12:54;;;;;;;23.05;3.92;;;;;;;11.90;77.22;99929.69;4971363;28;20054;-61
2021/05/16 03:15:22;;;;;;;19.15;3.58;;;;;;;11.96;77.81;99925.56;4972337;28;20043;-64
2021/05/16 03:17:50;;;;;;;20.67;3.80;;;;;;;12.12;76.54;99921.81;4973496;28;20053;-62
2021/05/16 03:20:18;;;;;;;24.10;4.15;;;;;;;11.89;77.34;99917.06;4972940;28;20057;-63
2021/05/16 03:22:47;;;;;;;19.42;3.55;;;;;;;11.97;77.77;99919.72;4972135;28;20059;-67
2021/05/16 03:25:14;;;;;;;17.95;3.38;;;;;;;11.86;77.72;99912.19;4971020;28;20054;-64
2021/05/16 03:27:44;;;;;;;22.02;4.22;;;;;;;11.79;78.27;99923.78;4971313;28;20355;-63
2021/05/16 03:30:11;;;;;;;14.65;3.72;;;;;;;11.90;78.56;99913.13;4973283;28;20047;-65
2021/05/16 03:32:41;;;;;;;26.52;4.15;;;;;;;11.78;78.00;99911.16;4972619;28;20054;-65
2021/05/16 03:35:10;;;;;;;30.25;5.05;;;;;;;11.82;78.25;99914.81;4972940;28;20046;-64
2021/05/16 03:37:38;;;;;;;26.67;4.00;;;;;;;11.84;77.97;99914.47;4956124;28;20054;-64
2021/05/16 03:40:06;;;;;;;24.02;4.45;;;;;;;11.70;79.37;99909.28;4973170;28;20116;-65
2021/05/16 03:42:34;;;;;;;21.17;3.80;;;;;;;11.86;78.83;99898.41;4973022;28;20046;-65
2021/05/16 03:45:03;;;;;;;20.45;3.75;;;;;;;11.66;78.14;99902.03;4972767;28;20154;-63
2021/05/16 03:47:30;;;;;;;18.27;4.50;;;;;;;11.76;79.37;99894.13;4973006;28;20047;-62
2021/05/16 03:49:58;;;;;;;19.60;3.88;;;;;;;11.77;78.56;99904.00;4971709;28;20051;-65
2021/05/16 03:52:25;;;;;;;21.73;3.95;;;;;;;11.84;78.54;99908.97;4971242;28;20487;-65
2021/05/16 03:54:53;;;;;;;19.25;3.80;;;;;;;11.83;78.02;99910.13;4972142;28;20352;-66
2021/05/16 03:57:22;;;;;;;26.67;4.38;;;;;;;11.86;77.54;99901.97;4972824;28;20143;-63
2021/05/16 03:59:50;;;;;;;21.05;3.70;;;;;;;11.95;77.53;99905.44;4972591;28;20058;-65
2021/05/16 04:02:17;;;;;;;22.42;3.65;;;;;;;11.89;77.38;99915.06;4970891;28;20058;-64
2021/05/16 04:04:45;;;;;;;22.85;4.57;;;;;;;11.91;77.45;99914.72;4971542;28;20402;-65
2021/05/16 04:07:12;;;;;;;19.63;3.70;;;;;;;11.93;77.16;99915.19;4985549;28;20383;-64
2021/05/16 04:09:40;;;;;;;26.30;4.05;;;;;;;12.17;76.82;99906.94;4992087;28;20065;-62
2021/05/16 04:12:07;;;;;;;22.58;3.47;;;;;;;12.00;76.42;99909.94;4992360;28;20066;-66
2021/05/16 04:14:35;;;;;;;26.75;4.05;;;;;;;11.84;77.39;99914.47;4991295;28;20512;-64
2021/05/16 04:17:02;;;;;;;19.08;3.20;;;;;;;11.91;77.42;99920.25;4991227;28;20054;-64
2021/05/16 04:23:58;;;;;;;21.98;4.20;;;;;;;11.85;77.74;99916.94;4992024;28;20038;-61
2021/05/16 04:26:26;;;;;;;19.08;3.60;;;;;;;11.88;77.80;99913.47;4991990;28;20054;-61
2021/05/16 04:28:53;;;;;;;22.73;3.97;;;;;;;11.85;77.60;99908.66;4991262;28;20062;-66
2021/05/16 04:31:21;;;;;;;19.02;3.53;;;;;;;11.94;77.97;99900.28;4991267;28;20053;-64
2021/05/16 04:38:16;;;;;;;26.48;4.57;;;;;;;12.07;77.84;99899.94;4977229;28;20434;-62
2021/05/16 04:40:45;;;;;;;17.83;4.47;;;;;;;11.81;78.66;99891.16;4994598;28;20042;-66
2021/05/16 04:43:13;;;;;;;20.30;3.30;;;;;;;11.97;78.15;99896.81;4994940;28;20057;-64
2021/05/16 04:45:40;;;;;;;17.58;4.13;;;;;;;12.13;77.75;99895.78;4994950;28;20054;-64
2021/05/16 04:52:34;;;;;;;16.92;3.35;;;;;;;12.24;77.37;99893.38;4994377;28;20061;-64
2021/05/16 04:55:02;;;;;;;16.83;3.55;;;;;;;12.30;76.98;99890.06;4994495;28;20054;-61
2021/05/16 04:57:32;;;;;;;20.85;3.55;;;;;;;12.20;76.91;99896.03;4961578;28;20058;-63
2021/05/16 05:00:01;;;;;;;;;;;;;;;12.11;77.65;99895.34;4978990;28;20046;-62
2021/05/16 05:02:29;;;;;;;18.30;4.13;;;;;;;12.11;77.73;99883.50;4995526;28;19921;-65
2021/05/16 05:09:34;;;;;;;20.83;4.32;;;;;;;12.42;76.99;99887.31;4956287;29;20074;-62
2021/05/16 05:12:02;;;;;;;23.95;4.50;;;;;;;12.05;78.13;99884.84;4956428;29;20044;-61
2021/05/16 05:14:33;;;;;;;21.45;4.38;;;;;;;12.22;78.33;99885.44;4923296;29;20055;-61
2021/05/16 05:17:07;;;;;;;18.35;3.90;;;;;;;12.33;77.99;99885.81;4956860;28;20059;-65
2021/05/16 05:24:01;;;;;;;18.15;3.58;;;;;;;12.37;77.77;99889.50;4956139;29;20043;-63
2021/05/16 05:26:28;;;;;;;18.48;4.20;;;;;;;12.31;77.93;99899.13;4956130;28;20131;-66
2021/05/16 05:28:56;;;;;;;19.80;3.72;;;;;;;12.46;77.42;99895.72;4955964;28;20059;-64
2021/05/16 05:31:23;;;;;;;23.02;3.45;;;;;;;12.38;78.05;99900.19;4955818;28;20059;-62
2021/05/16 05:33:51;;;;;;;15.98;2.90;;;;;;;12.47;77.89;99900.06;4954889;29;20399;-64
2021/05/16 05:36:19;;;;;;;16.60;3.80;;;;;;;12.63;77.11;99906.50;4955767;28;20054;-66
2021/05/16 05:38:47;;;;;;;17.23;3.33;;;;;;;12.67;77.15;99901.91;4955924;29;20047;-63
2021/05/16 05:41:15;;;;;;;20.10;3.95;;;;;;;12.86;76.84;99893.00;4953993;29;20372;-67
2021/05/16 05:43:42;;;;;;;20.75;3.42;;;;;;;13.08;75.89;99887.00;4955543;28;20062;-65
2021/05/16 05:46:10;;;;;;;17.58;3.90;;;;;;;12.99;75.88;99895.41;4953699;28;20087;-64
2021/05/16 05:48:38;;;;;;;19.58;3.42;;;;;;;13.02;76.22;99891.97;4955133;28;20051;-67
2021/05/16 05:51:06;;;;;;;22.92;4.43;;;;;;;12.96;76.11;99889.75;4955578;28;20066;-64
2021/05/16 05:53:34;;;;;;;17.33;3.28;;;;;;;13.02;76.27;99894.72;4955749;29;20070;-62
2021/05/16 05:56:01;;;;;;;19.63;3.78;;;;;;;12.91;76.27;99888.06;4956049;28;20055;-64
2021/05/16 05:58:33;;;;;;;17.50;3.35;;;;;;;13.09;76.04;99892.16;4955542;29;20054;-68
2021/05/16 06:01:00;;;;;;;22.00;3.97;;;;;;;13.14;75.48;99894.72;4953761;29;20395;-66
2021/05/16 06:03:28;;;;;;;19.92;3.90;;;;;;;13.11;75.44;99898.16;4955120;28;20047;-65
2021/05/16 06:05:55;;;;;;;22.48;2.95;;;;;;;13.09;75.69;99905.22;4955362;28;20048;-67
2021/05/16 06:08:23;;;;;;;17.83;3.70;;;;;;;13.13;75.71;99900.56;4978210;28;20038;-60
2021/05/16 06:10:51;;;;;;;21.05;4.10;;;;;;;13.50;74.89;99886.28;4993381;28;20057;-60
2021/05/16 06:13:18;;;;;;;19.17;3.63;;;;;;;13.37;74.89;99892.22;4976092;28;20054;-62
2021/05/16 06:15:46;;;;;;;23.13;3.50;;;;;;;13.36;74.91;99894.16;4993439;28;20065;-62
2021/05/16 06:18:14;;;;;;;17.00;3.67;;;;;;;13.67;74.46;99895.44;4993161;28;20050;-63
2021/05/16 06:25:06;;;;;;;19.48;3.35;;;;;;;13.70;74.36;99892.75;4993701;28;20347;-63
2021/05/16 06:27:33;;;;;;;16.17;3.42;;;;;;;13.74;73.87;99901.94;4993673;28;20051;-64
2021/05/16 06:30:02;;;;;;;20.38;4.03;;;;;;;13.85;72.93;99891.97;4992543;28;20057;-64
2021/05/16 06:32:29;;;;;;;15.52;3.65;;;;;;;13.92;72.93;99875.53;4992896;28;20050;-62
2021/05/16 06:34:57;;;;;;;18.40;3.97;;;;;;;13.79;73.97;99879.53;4975517;28;20564;-62
2021/05/16 06:37:24;;;;;;;15.52;3.35;;;;;;;13.88;73.08;99868.31;4992471;28;20062;-66
2021/05/16 06:39:51;;;;;;;14.93;3.10;;;;;;;13.93;73.00;99863.28;4976010;28;20046;-63
2021/05/16 06:42:21;;;;;;;11.32;2.47;;;;;;;14.04;72.39;99858.03;4975351;28;20057;-61
2021/05/16 06:44:48;;;;;;;15.32;3.17;;;;;;;14.13;72.10;99840.09;4993010;28;20054;-59
2021/05/16 06:47:16;;;;;;;14.13;2.13;;;;;;;14.48;70.87;99834.63;4993456;28;20057;-61
2021/05/16 06:49:47;;;;;;;15.57;2.75;;;;;;;14.56;69.48;99828.06;4992719;28;20054;-60
2021/05/16 06:52:14;;;;;;;14.07;3.00;;;;;;;14.29;69.69;99838.16;4992559;28;20181;-61
2021/05/16 06:54:42;;;;;;;12.32;2.72;;;;;;;14.20;70.14;99840.28;4993111;28;20069;-62
2021/05/16 06:57:10;;;;;;;22.42;8.25;;;;;;;14.16;70.32;99838.56;4975755;28;20057;-61
2021/05/16 06:59:38;;;;;;;19.15;5.28;;;;;;;14.07;70.33;99846.28;4992285;28;20198;-61
2021/05/16 07:02:05;;;;;;;15.15;3.95;;;;;;;14.16;70.15;99838.56;4992679;28;20038;-62
2021/05/16 07:04:34;;;;;;;13.00;2.30;;;;;;;14.16;69.40;99844.91;4992514;28;20378;-59
2021/05/16 07:07:02;;;;;;;13.45;2.83;;;;;;;14.39;69.11;99845.09;4992692;28;20050;-62
2021/05/16 07:09:30;;;;;;;21.42;3.47;;;;;;;14.38;68.60;99837.97;4992747;28;20046;-61
2021/05/16 07:11:57;;;;;;;13.88;2.17;;;;;;;14.48;69.58;99842.94;4992440;28;20054;-60
2021/05/16 07:14:25;;;;;;;18.58;2.97;;;;;;;14.41;69.74;99851.09;4975570;28;20509;-62
2021/05/16 07:16:53;;;;;;;17.85;3.00;;;;;;;14.50;69.12;99844.19;4992376;28;20058;-61
2021/05/16 07:19:21;;;;;;;15.75;2.88;;;;;;;14.58;68.87;99845.16;4992526;28;20057;-61
2021/05/16 07:21:48;;;;;;;17.67;2.42;;;;;;;14.52;68.68;99852.16;4991769;28;20458;-63
2021/05/16 07:24:16;;;;;;;15.20;2.17;;;;;;;14.71;68.44;99835.56;4958402;28;20054;-62
2021/05/16 07:26:43;;;;;;;14.45;2.70;;;;;;;14.81;68.58;99826.66;4975057;28;20126;-62
2021/05/16 07:29:11;;;;;;;16.10;2.60;;;;;;;15.01;67.76;99833.81;4992428;28;20047;-63
2021/05/16 07:31:39;;;;;;;8.45;2.22;;;;;;;14.79;69.04;99831.75;4991579;28;20050;-62
2021/05/16 07:38:38;;;;;;;15.88;2.83;;;;;;;15.02;69.05;99835.44;4974140;28;20050;-64
2021/05/16 07:41:05;;;;;;;17.52;3.10;;;;;;;15.49;69.77;99833.25;4991996;28;20058;-64
2021/05/16 07:43:33;;;;;;;8.98;2.15;;;;;;;15.72;68.25;99823.00;4991157;28;20491;-65
2021/05/16 07:46:01;;;;;;;13.43;2.50;;;;;;;15.88;66.85;99824.84;4992135;28;20504;-64
2021/05/16 07:48:28;;;;;;;12.50;2.30;;;;;;;15.78;66.83;99820.69;4991308;28;20500;-64
2021/05/16 07:55:32;;;;;;;13.15;2.70;;;;;;;16.31;65.76;99821.59;4991640;28;20054;-64
2021/05/16 07:58:00;;;;;;;15.35;2.30;;;;;;;16.09;66.20;99814.09;4992266;28;20046;-67
2021/05/16 08:00:27;;;;;;;12.68;2.45;;;;;;;16.16;65.84;99819.78;4992199;28;20053;-62
2021/05/16 08:02:55;;;;;;;14.88;2.45;;;;;;;16.49;65.10;99817.94;4991236;28;20122;-60
2021/05/16 08:05:22;;;;;;;9.45;2.00;;;;;;;16.60;64.58;99810.56;4991919;28;20046;-61
2021/05/16 08:07:50;;;;;;;18.73;3.92;;;;;;;16.29;64.28;99810.84;4974053;28;20517;-61
2021/05/16 08:10:20;;;;;;;13.88;2.70;;;;;;;16.64;64.05;99803.09;4992870;28;20042;-62
2021/05/16 08:12:49;;;;;;;13.25;2.05;;;;;;;16.63;63.81;99801.47;4995915;28;20054;-63
2021/05/16 08:15:17;;;;;;;10.25;2.30;;;;;;;16.85;63.75;99800.59;4995060;28;20058;-62
2021/05/16 08:17:45;;;;;;;9.82;1.77;;;;;;;17.14;61.18;99807.31;4995423;28;20102;-63
2021/05/16 08:20:13;;;;;;;10.48;2.00;;;;;;;17.42;61.01;99812.41;4995469;28;20054;-61
2021/05/16 08:22:41;;;;;;;13.77;2.83;;;;;;;16.88;61.75;99806.59;4995504;28;20157;-60
2021/05/16 08:25:11;;;;;;;12.32;2.50;;;;;;;17.43;60.21;99794.53;4996112;28;20489;-60
2021/05/16 08:27:40;;;;;;;10.25;2.45;;;;;;;17.10;60.35;99809.25;4996280;28;20054;-64
2021/05/16 08:30:09;;;;;;;8.32;2.45;;;;;;;17.49;60.28;99799.41;4995576;28;20050;-61
2021/05/16 08:32:37;;;;;;;11.60;2.28;;;;;;;16.97;59.63;99799.53;4996151;28;20118;-67
2021/05/16 08:35:05;;;;;;;8.38;1.75;;;;;;;17.22;60.08;99795.09;4995357;28;20047;-62
2021/05/16 08:37:32;;;;;;;13.90;1.77;;;;;;;17.42;59.25;99790.94;4977968;28;20062;-61
2021/05/16 08:40:00;;;;;;;10.10;2.25;;;;;;;17.34;59.96;99780.91;4977772;28;20050;-61
2021/05/16 08:42:29;;;;;;;9.50;2.10;;;;;;;17.63;59.71;99793.16;4995642;28;20046;-61
2021/05/16 08:44:56;;;;;;;9.65;1.60;;;;;;;17.97;57.11;99787.13;4995709;28;20054;-61
2021/05/16 08:47:24;;;;;;;7.82;1.58;;;;;;;18.25;56.87;99780.19;4995361;28;20073;-61
2021/05/16 08:49:51;;;;;;;8.10;1.73;;;;;;;17.94;57.17;99776.75;4995374;28;20053;-62
2021/05/16 08:56:49;;;;;;;7.95;1.95;;;;;;;17.12;58.03;99778.28;4992865;28;20066;-62
2021/05/16 08:59:16;;;;;;;8.45;1.70;;;;;;;17.05;59.67;99770.63;4994636;28;20058;-64
2021/05/16 09:01:49;;;;;;;8.80;1.92;;;;;;;17.21;58.47;99767.66;4976826;28;20061;-69
2021/05/16 09:04:28;;;;;;;9.85;2.03;;;;;;;16.62;59.82;99771.25;4994531;28;20414;-68
2021/05/16 09:11:26;;;;;;;7.32;1.50;;;;;;;16.85;60.31;99772.78;4954402;28;20039;-68
2021/05/16 09:13:58;;;;;;;7.57;1.95;;;;;;;16.85;61.48;99772.78;4955227;28;20157;-63
2021/05/16 09:16:27;;;;;;;8.68;2.08;;;;;;;16.77;60.21;99782.19;4954646;28;20055;-61
2021/05/16 09:18:56;;;;;;;9.73;1.70;;;;;;;16.73;61.05;99769.44;4954911;28;20048;-65
2021/05/16 09:25:49;;;;;;;8.57;1.80;;;;;;;16.96;59.62;99761.78;4955226;28;20082;-61
2021/05/16 09:28:19;;;;;;;7.32;1.73;;;;;;;16.84;60.20;99757.25;4954858;29;20063;-64
2021/05/16 09:30:46;;;;;;;7.15;1.30;;;;;;;16.81;59.58;99766.34;4954821;28;20048;-67
2021/05/16 09:33:14;;;;;;;6.63;1.33;;;;;;;16.88;58.87;99770.44;4954672;28;20544;-64
2021/05/16 09:40:10;;;;;;;13.35;2.45;;;;;;;17.47;58.28;99765.56;4954376;29;20043;-66
2021/05/16 09:42:37;;;;;;;18.33;4.13;;;;;;;17.51;57.89;99777.53;4953666;28;20402;-67
2021/05/16 09:45:06;;;;;;;9.52;3.75;;;;;;;17.44;58.43;99771.06;4954120;28;20056;-68
2021/05/16 09:47:33;;;;;;;11.40;4.20;;;;;;;17.36;58.64;99770.19;4954520;28;20050;-69
2021/05/16 09:50:02;;;;;;;7.95;2.67;;;;;;;17.66;57.75;99765.34;4954870;28;20051;-70
2021/05/16 09:52:31;;;;;;;11.23;2.70;;;;;;;17.86;57.14;99755.59;4953002;29;20510;-68
2021/05/16 09:55:05;;;;;;;11.50;2.20;;;;;;;18.01;56.32;99764.84;4954660;28;20074;-64
2021/05/16 09:57:37;;;;;;;6.10;1.92;;;;;;;17.97;55.79;99761.25;4954553;28;20058;-68
2021/05/16 10:00:07;;;;;;;6.50;1.67;;;;;;;17.86;56.53;99758.38;4954321;29;20054;-67
2021/05/16 10:02:35;;;;;;;5.85;1.70;;;;;;;17.52;57.44;99762.41;4953868;28;20247;-68
2021/05/16 10:05:04;;;;;;;7.47;1.52;;;;;;;17.75;58.26;99759.44;4954266;28;20062;-68
2021/05/16 10:07:31;;;;;;;7.90;2.10;;;;;;;17.97;58.22;99758.47;4953950;28;20152;-65
2021/05/16 10:09:59;;;;;;;10.32;2.20;;;;;;;17.81;58.71;99764.31;4972321;28;20062;-64
2021/05/16 10:12:27;;;;;;;5.38;1.20;;;;;;;17.78;58.25;99761.50;4992000;28;20058;-67
2021/05/16 10:15:00;;;;;;;6.13;1.90;;;;;;;18.05;57.86;99759.31;4974703;28;20531;-71
2021/05/16 10:17:34;;;;;;;6.80;1.67;;;;;;;18.08;56.77;99748.19;4974991;28;20054;-69
2021/05/16 10:20:20;;;;;;;9.98;1.60;;;;;;;17.97;57.80;99750.88;4974097;28;20046;-64
2021/05/16 10:22:52;;;;;;;7.70;2.00;;;;;;;18.07;57.59;99762.50;4975045;28;20054;-64
2021/05/16 10:25:43;;;;;;;4.68;1.30;;;;;;;17.42;58.43;99762.28;4991884;28;20054;-64
2021/05/16 10:28:16;;;;;;;6.20;2.22;;;;;;;17.42;59.11;99756.72;4992118;28;20051;-66
2021/05/16 10:31:37;;;;;;;8.63;3.80;;;;;;;17.34;59.26;99767.00;4992462;28;20058;-64
2021/05/16 10:34:39;;;;;;;7.10;2.47;;;;;;;17.17;59.37;99769.56;4931813;29;20056;-65
2021/05/16 10:41:23;;;;;;;9.10;1.58;;;;;;;16.50;62.46;99752.84;4894476;29;20068;-67
2021/05/16 10:43:50;;;;;;;5.80;1.60;;;;;;;16.64;62.40;99753.03;4894309;29;20053;-64
2021/05/16 10:46:36;;;;;;;7.85;2.30;;;;;;;17.01;62.24;99744.75;4894194;29;20149;-65
2021/05/16 10:49:22;;;;;;;9.63;1.60;;;;;;;17.01;61.75;99744.75;4893314;29;20052;-67
2021/05/16 10:56:13;;;;;;;6.50;1.50;;;;;;;17.39;60.32;99746.34;4893999;29;20057;-65
2021/05/16 10:58:45;;;;;;;7.00;1.67;;;;;;;17.66;59.20;99747.84;4892990;29;20064;-64
2021/05/16 11:01:18;;;;;;;9.18;1.77;;;;;;;17.34;59.39;99747.50;4893565;29;20055;-67
2021/05/16 11:03:56;;;;;;;5.20;1.58;;;;;;;17.34;59.17;99758.63;4893603;29;20460;-64
2021/05/16 11:10:54;;;;;;;8.23;2.42;;;;;;;17.25;60.52;99740.63;4893855;29;20132;-67
2021/05/16 11:13:27;;;;;;;7.18;2.20;;;;;;;17.39;59.95;99736.03;4909862;29;20056;-67
2021/05/16 11:16:05;;;;;;;7.70;1.90;;;;;;;17.27;60.85;99735.50;4931806;29;20056;-64
2021/05/16 11:18:33;;;;;;;6.80;1.80;;;;;;;17.23;60.23;99741.00;4915467;29;20443;-69
2021/05/16 11:21:06;;;;;;;6.03;1.60;;;;;;;17.41;60.17;99727.28;4931670;29;20244;-66
2021/05/16 11:23:38;;;;;;;9.20;1.98;;;;;;;17.29;59.94;99722.81;4931575;29;20056;-65
2021/05/16 11:26:11;;;;;;;9.27;2.20;;;;;;;17.49;59.51;99726.19;4915376;29;20052;-67
2021/05/16 11:28:59;;;;;;;8.13;2.00;;;;;;;17.44;59.05;99718.97;4930663;29;20353;-70
2021/05/16 11:31:29;;;;;;;7.68;1.80;;;;;;;17.79;57.56;99726.88;4930548;29;20047;-73
2021/05/16 11:34:00;;;;;;;7.07;1.52;;;;;;;17.80;57.09;99711.78;4868446;29;20476;-72
2021/05/16 11:36:33;;;;;;;6.97;1.60;;;;;;;17.90;57.01;99709.03;4930590;29;20502;-67
2021/05/16 11:39:05;;;;;;;7.13;1.88;;;;;;;18.28;55.49;99701.34;4930390;29;20472;-69
2021/05/16 11:41:37;;;;;;;6.30;1.40;;;;;;;18.24;53.53;99690.16;4973385;28;20062;-70
2021/05/16 11:44:06;;;;;;;6.72;1.60;;;;;;;18.37;52.46;99687.84;4990135;28;20482;-66
2021/05/16 11:46:41;;;;;;;8.23;2.00;;;;;;;18.30;52.61;99683.03;4989881;28;20058;-70
2021/05/16 11:49:12;;;;;;;8.23;2.00;;;;;;;18.37;51.97;99676.69;4957264;28;20069;-65
2021/05/16 11:51:39;;;;;;;7.03;1.60;;;;;;;18.39;52.83;99677.13;4974011;28;20471;-63
2021/05/16 11:54:10;;;;;;;8.75;1.83;;;;;;;18.64;51.75;99684.44;4990202;28;20054;-63
2021/05/16 11:56:49;;;;;;;6.63;1.67;;;;;;;18.74;51.36;99675.28;4990627;28;20057;-66
2021/05/16 11:59:16;;;;;;;8.65;1.45;;;;;;;18.95;51.74;99674.59;4990804;28;20223;-65
2021/05/16 12:01:47;;;;;;;9.00;1.75;;;;;;;18.46;51.11;99671.59;4989947;28;20061;-66
2021/05/16 12:04:16;;;;;;;8.45;1.75;;;;;;;18.25;52.55;99665.88;4990464;28;20057;-65
2021/05/16 12:06:50;;;;;;;8.27;2.25;;;;;;;18.52;52.64;99659.66;4989900;28;20054;-66
2021/05/16 12:09:22;;;;;;;6.30;1.55;;;;;;;18.73;51.89;99667.31;4990116;28;20055;-67
2021/05/16 12:11:51;;;;;;;5.88;1.40;;;;;;;18.42;52.66;99666.00;4990737;28;20050;-64
2021/05/16 12:14:21;;;;;;;7.35;1.48;;;;;;;18.15;51.91;99663.84;4973254;28;20058;-65
2021/05/16 12:16:58;;;;;;;7.85;1.40;;;;;;;18.33;51.99;99661.94;4973230;28;20050;-67
2021/05/16 12:19:28;;;;;;;5.75;1.63;;;;;;;18.40;52.00;99653.59;4989914;28;20046;-68
2021/05/16 12:22:00;;;;;;;7.53;1.17;;;;;;;17.98;52.11;99652.19;4957193;28;20065;-67
2021/05/16 12:24:34;;;;;;;6.85;1.60;;;;;;;17.81;52.90;99661.22;4990762;28;20050;-68
2021/05/16 12:27:04;;;;;;;6.40;1.30;;;;;;;17.71;52.69;99661.94;4989752;28;20058;-68
2021/05/16 12:29:32;;;;;;;8.30;1.88;;;;;;;17.33;48.96;99664.38;4989669;28;20050;-69
2021/05/16 12:31:59;;;;;;;7.95;1.73;;;;;;;17.30;48.86;99660.38;4972769;28;20399;-66
2021/05/16 12:34:28;;;;;;;5.78;1.30;;;;;;;17.51;48.20;99665.34;4990331;28;20555;-68
2021/05/16 12:37:03;;;;;;;7.40;1.30;;;;;;;17.60;48.11;99663.84;4972663;28;20046;-67
2021/05/16 12:39:35;;;;;;;8.32;2.17;;;;;;;17.65;47.17;99671.03;4974185;28;20463;-66
2021/05/16 12:42:03;;;;;;;5.78;1.40;;;;;;;17.66;47.01;99669.88;4990410;28;20055;-68
2021/05/16 12:44:31;;;;;;;8.65;1.70;;;;;;;17.72;45.96;99663.56;4991092;28;20363;-72
2021/05/16 12:46:58;;;;;;;8.18;2.03;;;;;;;17.87;45.71;99659.66;4972658;28;20406;-67
2021/05/16 12:49:27;;;;;;;6.80;1.38;;;;;;;18.07;45.13;99654.63;4990351;28;20053;-70
2021/05/16 12:52:02;;;;;;;7.50;1.52;;;;;;;18.04;44.80;99649.84;4990146;28;20069;-69
2021/05/16 12:54:37;;;;;;;7.13;1.63;;;;;;;17.96;45.34;99650.97;4972945;28;20073;-67
2021/05/16 12:57:17;;;;;;;8.52;1.83;;;;;;;18.05;45.37;99645.84;4991845;28;20054;-64
2021/05/16 12:59:45;;;;;;;8.23;1.48;;;;;;;18.46;45.28;99636.13;4993897;28;20375;-65